createdAt,value
2023-05-08T00:00:57.253Z,80.39
2023-05-08T00:03:00.306Z,79.84
2023-05-08T00:05:03.259Z,79.80
2023-05-08T00:07:06.381Z,79.89
2023-05-08T00:09:12.568Z,79.89
2023-05-08T00:11:15.647Z,79.57
2023-05-08T00:13:18.503Z,79.84
2023-05-08T00:15:21.506Z,79.98
2023-05-08T00:17:24.355Z,80.15
2023-05-08T00:19:27.184Z,80.49
2023-05-08T00:21:30.102Z,80.47
2023-05-08T00:23:32.965Z,80.60
2023-05-08T00:25:37.127Z,80.70
2023-05-08T00:27:39.924Z,80.48
2023-05-08T00:29:43.032Z,80.29
2023-05-08T00:31:45.998Z,80.15
2023-05-08T00:33:49.472Z,80.24
2023-05-08T00:35:52.478Z,80.34
2023-05-08T00:37:55.284Z,79.90
2023-05-08T00:39:58.276Z,79.91
2023-05-08T00:42:02.393Z,80.23
2023-05-08T00:44:05.515Z,80.72
2023-05-08T00:46:09.646Z,80.82
2023-05-08T00:48:12.924Z,80.71
2023-05-08T00:50:16.817Z,80.36
2023-05-08T00:52:20.541Z,80.28
2023-05-08T00:54:23.589Z,80.54
2023-05-08T00:56:28.161Z,80.61
2023-05-08T00:58:35.234Z,80.04
2023-05-08T01:00:40.159Z,79.86
2023-05-08T01:02:43.108Z,79.76
2023-05-08T01:04:47.334Z,79.15
2023-05-08T01:06:50.366Z,79.93
2023-05-08T01:08:53.293Z,80.34
2023-05-08T01:11:02.847Z,80.46
2023-05-08T01:13:12.629Z,80.28
2023-05-08T01:15:22.196Z,80.55
2023-05-08T01:17:33.189Z,80.80
2023-05-08T01:19:53.609Z,80.68
2023-05-08T01:22:05.247Z,80.86
2023-05-08T01:24:34.421Z,80.82
2023-05-08T01:27:11.171Z,81.20
2023-05-08T01:29:40.465Z,81.12
2023-05-08T01:32:01.600Z,81.23
2023-05-08T01:34:07.317Z,81.42
2023-05-08T01:36:20.262Z,81.11
2023-05-08T01:38:31.366Z,81.14
2023-05-08T01:40:41.791Z,81.51
2023-05-08T01:42:51.498Z,81.04
2023-05-08T01:45:01.065Z,80.95
2023-05-08T01:47:09.168Z,80.92
2023-05-08T01:49:18.714Z,81.20
2023-05-08T01:51:24.788Z,81.13
2023-05-08T01:53:31.605Z,81.48
2023-05-08T01:55:37.409Z,81.50
2023-05-08T01:57:47.844Z,81.49
2023-05-08T01:59:52.569Z,81.60
2023-05-08T02:01:58.846Z,81.49
2023-05-08T02:04:05.092Z,81.34
2023-05-08T02:06:09.230Z,81.52
2023-05-08T02:08:13.946Z,81.25
2023-05-08T02:10:18.332Z,80.97
2023-05-08T02:12:23.440Z,81.20
2023-05-08T02:14:27.734Z,81.16
2023-05-08T02:16:31.931Z,81.25
2023-05-08T02:18:36.886Z,81.01
2023-05-08T02:20:42.468Z,80.95
2023-05-08T02:22:50.032Z,80.94
2023-05-08T02:24:55.341Z,80.87
2023-05-08T02:26:59.637Z,80.73
2023-05-08T02:29:04.069Z,80.68
2023-05-08T02:31:07.997Z,80.71
2023-05-08T02:33:12.685Z,80.48
2023-05-08T02:35:18.080Z,80.63
2023-05-08T02:37:23.528Z,80.69
2023-05-08T02:39:31.400Z,80.65
2023-05-08T02:41:35.974Z,80.70
2023-05-08T02:43:38.967Z,81.42
2023-05-08T02:45:48.866Z,80.91
2023-05-08T02:48:01.148Z,81.05
2023-05-08T02:50:10.645Z,80.94
2023-05-08T02:52:18.228Z,81.32
2023-05-08T02:54:30.356Z,80.86
2023-05-08T02:56:39.240Z,81.46
2023-05-08T02:58:46.948Z,81.06
2023-05-08T03:01:09.319Z,81.27
2023-05-08T03:03:18.982Z,81.48
2023-05-08T03:05:30.638Z,81.35
2023-05-08T03:07:39.303Z,81.11
2023-05-08T03:09:46.402Z,81.02
2023-05-08T03:11:51.798Z,81.61
2023-05-08T03:13:59.776Z,81.46
2023-05-08T03:16:06.244Z,81.26
2023-05-08T03:18:12.278Z,81.20
2023-05-08T03:20:18.666Z,81.33
2023-05-08T03:22:22.330Z,81.56
2023-05-08T03:24:29.073Z,81.78
2023-05-08T03:26:34.114Z,81.40
2023-05-08T03:28:38.847Z,81.74
2023-05-08T03:30:41.852Z,82.13
2023-05-08T03:32:49.181Z,81.78
2023-05-08T03:34:52.928Z,81.32
2023-05-08T03:36:56.618Z,81.66
2023-05-08T03:39:00.967Z,81.38
2023-05-08T03:41:04.085Z,81.87
2023-05-08T03:43:10.581Z,81.38
2023-05-08T03:45:15.237Z,81.64
2023-05-08T03:47:18.294Z,81.91
2023-05-08T03:49:23.288Z,81.84
2023-05-08T03:51:26.103Z,82.06
2023-05-08T03:53:30.281Z,82.09
2023-05-08T03:55:33.927Z,82.05
2023-05-08T03:57:50.051Z,82.08
2023-05-08T04:00:04.411Z,81.78
2023-05-08T04:02:26.762Z,81.87
2023-05-08T04:04:39.640Z,82.14
2023-05-08T04:06:50.463Z,81.95
2023-05-08T04:09:06.708Z,81.88
2023-05-08T04:11:17.383Z,81.97
2023-05-08T04:13:26.821Z,81.94
2023-05-08T04:15:35.468Z,81.83
2023-05-08T04:17:43.792Z,81.87
2023-05-08T04:19:52.940Z,82.16
2023-05-08T04:22:00.433Z,81.65
2023-05-08T04:24:05.519Z,81.88
2023-05-08T04:26:09.929Z,81.52
2023-05-08T04:28:12.850Z,81.99
2023-05-08T04:30:16.202Z,81.65
2023-05-08T04:32:22.717Z,81.81
2023-05-08T04:34:26.062Z,81.78
2023-05-08T04:36:33.782Z,81.58
2023-05-08T04:38:38.207Z,81.98
2023-05-08T04:40:42.245Z,82.14
2023-05-08T04:42:47.720Z,82.25
2023-05-08T04:44:52.851Z,82.26
2023-05-08T04:46:56.585Z,82.23
2023-05-08T04:49:00.866Z,82.18
2023-05-08T04:51:05.675Z,82.31
2023-05-08T04:53:09.165Z,82.18
2023-05-08T04:55:12.865Z,82.33
2023-05-08T04:57:15.984Z,82.45
2023-05-08T04:59:18.775Z,82.35
2023-05-08T05:01:22.214Z,81.88
2023-05-08T05:03:25.113Z,81.89
2023-05-08T05:05:31.107Z,82.25
2023-05-08T05:07:34.186Z,82.07
2023-05-08T05:09:39.115Z,81.96
2023-05-08T05:11:42.005Z,82.05
2023-05-08T05:13:44.767Z,82.06
2023-05-08T05:15:47.889Z,81.82
2023-05-08T05:17:51.569Z,81.97
2023-05-08T05:19:54.439Z,82.34
2023-05-08T05:21:59.848Z,82.33
2023-05-08T05:24:02.701Z,82.33
2023-05-08T05:26:07.397Z,82.33
2023-05-08T05:28:10.538Z,82.03
2023-05-08T05:30:14.134Z,82.39
2023-05-08T05:32:17.255Z,82.37
2023-05-08T05:34:20.474Z,82.44
2023-05-08T05:36:23.419Z,82.27
2023-05-08T05:38:27.878Z,82.54
2023-05-08T05:40:31.259Z,82.27
2023-05-08T05:42:34.104Z,82.15
2023-05-08T05:44:37.948Z,82.28
2023-05-08T05:46:43.543Z,82.47
2023-05-08T05:48:47.207Z,82.51
2023-05-08T05:50:50.043Z,82.40
2023-05-08T05:52:53.130Z,82.59
2023-05-08T05:54:57.689Z,82.57
2023-05-08T05:57:01.020Z,82.55
2023-05-08T05:59:04.212Z,82.71
2023-05-08T06:01:07.052Z,82.56
2023-05-08T06:03:10.720Z,82.52
2023-05-08T06:05:13.898Z,82.55
2023-05-08T06:07:16.983Z,82.46
2023-05-08T06:09:20.372Z,82.68
2023-05-08T06:11:24.591Z,82.65
2023-05-08T06:13:27.652Z,82.51
2023-05-08T06:15:30.529Z,82.45
2023-05-08T06:17:33.305Z,82.39
2023-05-08T06:19:36.566Z,82.64
2023-05-08T06:21:39.807Z,82.46
2023-05-08T06:23:42.712Z,82.35
2023-05-08T06:25:45.491Z,82.47
2023-05-08T06:27:49.631Z,82.51
2023-05-08T06:29:53.177Z,82.72
2023-05-08T06:31:56.832Z,82.81
2023-05-08T06:33:59.591Z,82.67
2023-05-08T06:36:02.384Z,82.66
2023-05-08T06:38:05.199Z,82.51
2023-05-08T06:40:12.106Z,81.51
2023-05-08T06:42:16.030Z,80.98
2023-05-08T06:44:23.131Z,80.49
2023-05-08T06:46:26.093Z,79.76
2023-05-08T06:48:29.416Z,80.36
2023-05-08T06:50:32.607Z,80.66
2023-05-08T06:52:35.453Z,80.46
2023-05-08T06:54:38.175Z,79.74
2023-05-08T06:56:41.025Z,79.71
2023-05-08T06:58:50.561Z,79.94
2023-05-08T07:01:02.048Z,80.09
2023-05-08T07:03:04.963Z,80.14
2023-05-08T07:05:08.655Z,80.56
2023-05-08T07:07:12.749Z,80.61
2023-05-08T07:09:19.048Z,80.62
2023-05-08T07:11:22.023Z,79.75
2023-05-08T07:13:24.893Z,78.88
2023-05-08T07:15:27.900Z,78.51
2023-05-08T07:17:32.696Z,78.54
2023-05-08T07:19:36.399Z,78.78
2023-05-08T07:21:40.161Z,78.41
2023-05-08T07:23:43.024Z,78.30
2023-05-08T07:25:45.966Z,78.68
2023-05-08T07:27:48.854Z,78.24
2023-05-08T07:29:51.617Z,78.46
2023-05-08T07:31:54.441Z,79.00
2023-05-08T07:34:59.657Z,79.06
2023-05-08T07:36:52.822Z,79.09
2023-05-08T07:38:55.622Z,78.82
2023-05-08T07:40:59.626Z,78.38
2023-05-08T07:43:02.486Z,78.12
2023-05-08T07:45:05.785Z,78.06
2023-05-08T07:47:08.601Z,77.78
2023-05-08T07:49:11.521Z,77.29
2023-05-08T07:51:15.870Z,76.88
2023-05-08T07:53:18.715Z,76.89
2023-05-08T07:55:22.493Z,76.21
2023-05-08T07:57:25.601Z,76.40
2023-05-08T07:59:28.496Z,76.91
2023-05-08T08:01:31.525Z,77.15
2023-05-08T08:03:38.852Z,77.40
2023-05-08T08:05:41.959Z,76.64
2023-05-08T08:07:46.100Z,76.66
2023-05-08T08:09:48.954Z,76.89
2023-05-08T08:11:51.763Z,76.82
2023-05-08T08:13:54.537Z,76.71
2023-05-08T08:15:57.392Z,76.66
2023-05-08T08:18:00.253Z,76.97
2023-05-08T08:20:03.087Z,76.78
2023-05-08T08:22:07.233Z,76.99
2023-05-08T08:24:11.424Z,77.15
2023-05-08T08:26:14.235Z,77.56
2023-05-08T08:28:17.932Z,77.05
2023-05-08T08:30:20.937Z,77.56
2023-05-08T08:32:23.761Z,77.58
2023-05-08T08:34:26.532Z,77.99
2023-05-08T08:36:29.278Z,77.31
2023-05-08T08:38:32.347Z,77.00
2023-05-08T08:40:41.502Z,77.14
2023-05-08T08:42:44.386Z,77.27
2023-05-08T08:44:47.208Z,77.80
2023-05-08T08:46:52.657Z,77.71
2023-05-08T08:48:57.274Z,78.00
2023-05-08T08:51:07.134Z,78.19
2023-05-08T08:53:16.163Z,77.71
2023-05-08T08:55:21.584Z,77.84
2023-05-08T08:57:28.559Z,77.51
2023-05-08T08:59:32.454Z,77.89
2023-05-08T09:01:36.872Z,77.44
2023-05-08T09:03:39.831Z,77.88
2023-05-08T09:05:43.781Z,77.47
2023-05-08T09:07:46.725Z,77.79
2023-05-08T09:09:50.275Z,77.89
2023-05-08T09:11:53.698Z,77.65
2023-05-08T09:13:58.697Z,77.74
2023-05-08T09:16:03.875Z,78.10
2023-05-08T09:18:07.069Z,77.10
2023-05-08T09:20:11.293Z,77.29
2023-05-08T09:22:14.244Z,77.62
2023-05-08T09:24:17.074Z,78.00
2023-05-08T09:26:28.397Z,77.28
2023-05-08T09:28:31.181Z,77.52
2023-05-08T09:30:49.596Z,77.60
2023-05-08T09:33:02.617Z,77.09
2023-05-08T09:35:06.686Z,75.22
2023-05-08T09:37:13.698Z,75.29
2023-05-08T09:39:23.498Z,75.54
2023-05-08T09:41:26.655Z,75.71
2023-05-08T09:43:29.469Z,75.77
2023-05-08T09:45:35.358Z,76.36
2023-05-08T09:47:40.387Z,76.56
2023-05-08T09:49:58.228Z,76.81
2023-05-08T09:52:01.243Z,77.77
2023-05-08T09:54:06.462Z,77.75
2023-05-08T09:56:09.680Z,77.83
2023-05-08T09:58:12.640Z,77.99
2023-05-08T10:00:16.381Z,77.88
2023-05-08T10:02:20.995Z,77.72
2023-05-08T10:04:35.015Z,77.79
2023-05-08T10:06:37.796Z,77.92
2023-05-08T10:08:40.589Z,78.02
2023-05-08T10:10:43.479Z,77.80
2023-05-08T10:12:46.471Z,78.11
2023-05-08T10:14:49.280Z,78.29
2023-05-08T10:16:53.743Z,78.80
2023-05-08T10:19:00.433Z,78.65
2023-05-08T10:21:07.791Z,79.00
2023-05-08T10:23:15.463Z,78.88
2023-05-08T10:25:21.512Z,78.54
2023-05-08T10:27:31.980Z,78.86
2023-05-08T10:29:38.928Z,78.97
2023-05-08T10:31:43.944Z,79.04
2023-05-08T10:33:51.212Z,78.91
2023-05-08T10:35:54.386Z,78.86
2023-05-08T10:37:59.473Z,78.55
2023-05-08T10:40:03.598Z,78.01
2023-05-08T10:42:06.767Z,77.92
2023-05-08T10:44:10.831Z,77.82
2023-05-08T10:46:22.323Z,78.12
2023-05-08T10:48:33.100Z,77.81
2023-05-08T10:50:45.641Z,77.76
2023-05-08T10:52:54.903Z,77.73
2023-05-08T10:55:24.235Z,78.03
2023-05-08T10:57:27.076Z,77.74
2023-05-08T10:59:29.936Z,77.39
2023-05-08T11:01:33.038Z,77.30
2023-05-08T11:03:40.552Z,77.66
2023-05-08T11:05:47.855Z,77.18
2023-05-08T11:07:57.852Z,77.57
2023-05-08T11:10:08.264Z,78.01
2023-05-08T11:12:21.644Z,77.69
2023-05-08T11:14:25.110Z,77.51
2023-05-08T11:17:04.673Z,77.46
2023-05-08T11:19:17.576Z,77.79
2023-05-08T11:21:22.527Z,77.77
2023-05-08T11:23:26.882Z,77.66
2023-05-08T11:25:43.465Z,77.28
2023-05-08T11:28:17.345Z,77.44
2023-05-08T11:30:22.675Z,77.15
2023-05-08T11:33:14.495Z,76.52
2023-05-08T11:35:44.610Z,76.57
2023-05-08T11:38:12.561Z,76.79
2023-05-08T11:40:45.974Z,76.88
2023-05-08T11:42:48.813Z,76.87
2023-05-08T11:45:04.078Z,76.90
2023-05-08T11:47:08.384Z,77.18
2023-05-08T11:49:16.590Z,76.92
2023-05-08T11:51:20.353Z,76.65
2023-05-08T11:53:23.434Z,76.16
2023-05-08T11:55:27.323Z,75.46
2023-05-08T11:57:32.381Z,75.86
2023-05-08T11:59:38.366Z,75.56
2023-05-08T12:01:44.736Z,76.27
2023-05-08T12:03:49.571Z,75.89
2023-05-08T12:05:54.283Z,75.47
2023-05-08T12:07:56.896Z,75.24
2023-05-08T12:10:02.496Z,75.85
2023-05-08T12:12:05.607Z,75.21
2023-05-08T12:14:08.566Z,75.46
2023-05-08T12:16:12.041Z,76.36
2023-05-08T12:18:16.943Z,75.56
2023-05-08T12:20:20.335Z,74.46
2023-05-08T12:22:23.212Z,74.56
2023-05-08T12:24:26.696Z,75.18
2023-05-08T12:26:29.548Z,75.26
2023-05-08T12:28:33.249Z,75.81
2023-05-08T12:30:36.839Z,75.84
2023-05-08T12:32:42.420Z,75.42
2023-05-08T12:34:46.695Z,74.92
2023-05-08T12:36:51.309Z,74.38
2023-05-08T12:38:54.157Z,73.90
2023-05-08T12:40:57.259Z,74.03
2023-05-08T12:43:02.691Z,72.91
2023-05-08T12:45:06.543Z,72.48
2023-05-08T12:47:09.458Z,71.51
2023-05-08T12:49:12.897Z,72.51
2023-05-08T12:51:17.117Z,72.29
2023-05-08T12:53:21.498Z,72.40
2023-05-08T12:55:26.254Z,72.32
2023-05-08T12:57:30.916Z,71.59
2023-05-08T12:59:33.917Z,72.19
2023-05-08T13:01:36.873Z,72.44
2023-05-08T13:03:40.761Z,72.37
2023-05-08T13:05:45.546Z,71.98
2023-05-08T13:07:50.252Z,72.02
2023-05-08T13:09:59.939Z,71.29
2023-05-08T13:12:02.990Z,71.46
2023-05-08T13:14:05.798Z,71.42
2023-05-08T13:16:09.115Z,71.40
2023-05-08T13:18:12.701Z,70.12
2023-05-08T13:20:15.988Z,71.42
2023-05-08T13:22:19.286Z,71.15
2023-05-08T13:24:23.665Z,71.47
2023-05-08T13:26:26.696Z,71.81
2023-05-08T13:28:29.520Z,71.35
2023-05-08T13:30:32.468Z,70.75
2023-05-08T13:32:35.272Z,70.23
2023-05-08T13:34:44.318Z,71.21
2023-05-08T13:36:52.931Z,70.35
2023-05-08T13:38:57.244Z,71.11
2023-05-08T13:41:01.595Z,71.61
2023-05-08T13:43:04.461Z,70.21
2023-05-08T13:45:08.590Z,70.04
2023-05-08T13:47:11.727Z,69.85
2023-05-08T13:49:14.503Z,69.92
2023-05-08T13:51:17.291Z,70.40
2023-05-08T13:53:20.095Z,71.09
2023-05-08T13:55:23.660Z,70.36
2023-05-08T13:57:27.975Z,69.98
2023-05-08T13:59:32.520Z,70.60
2023-05-08T14:01:38.087Z,71.24
2023-05-08T14:03:41.129Z,70.78
2023-05-08T14:05:45.252Z,71.61
2023-05-08T14:07:48.261Z,72.17
2023-05-08T14:09:51.162Z,71.79
2023-05-08T14:11:53.991Z,71.91
2023-05-08T14:13:58.545Z,71.76
2023-05-08T14:16:01.442Z,72.06
2023-05-08T14:18:04.525Z,72.09
2023-05-08T14:20:10.278Z,72.69
2023-05-08T14:22:14.430Z,73.05
2023-05-08T14:24:17.460Z,73.26
2023-05-08T14:26:21.107Z,72.56
2023-05-08T14:28:24.191Z,72.49
2023-05-08T14:30:28.469Z,71.78
2023-05-08T14:32:31.267Z,71.56
2023-05-08T14:34:34.075Z,72.25
2023-05-08T14:36:38.486Z,72.11
2023-05-08T14:38:41.264Z,72.15
2023-05-08T14:40:44.133Z,72.42
2023-05-08T14:42:46.921Z,72.49
2023-05-08T14:44:49.699Z,72.16
2023-05-08T14:46:53.811Z,71.58
2023-05-08T14:48:57.080Z,71.20
2023-05-08T14:50:59.952Z,71.21
2023-05-08T14:53:02.849Z,71.20
2023-05-08T14:55:06.625Z,71.32
2023-05-08T14:57:09.612Z,71.34
2023-05-08T14:59:12.401Z,71.44
2023-05-08T15:01:15.308Z,70.68
2023-05-08T15:03:19.627Z,71.39
2023-05-08T15:05:22.691Z,71.80
2023-05-08T15:07:25.739Z,71.85
2023-05-08T15:09:28.574Z,71.98
2023-05-08T15:11:31.360Z,72.29
2023-05-08T15:13:34.226Z,71.84
2023-05-08T15:15:37.034Z,71.14
2023-05-08T15:17:41.414Z,70.53
2023-05-08T15:19:46.482Z,71.37
2023-05-08T15:21:49.122Z,71.58
2023-05-08T15:23:51.927Z,72.21
2023-05-08T15:25:54.717Z,70.04
2023-05-08T15:27:58.276Z,69.24
2023-05-08T15:30:01.160Z,69.97
2023-05-08T15:32:03.974Z,70.13
2023-05-08T15:34:06.755Z,70.29
2023-05-08T15:36:11.177Z,69.55
2023-05-08T15:38:13.954Z,68.69
2023-05-08T15:40:16.843Z,67.97
2023-05-08T15:42:20.536Z,67.46
2023-05-08T15:44:24.853Z,68.26
2023-05-08T15:46:29.490Z,68.74
2023-05-08T15:48:32.522Z,68.70
2023-05-08T15:50:35.300Z,68.37
2023-05-08T15:52:39.491Z,68.32
2023-05-08T15:54:42.232Z,68.01
2023-05-08T15:56:45.086Z,68.67
2023-05-08T15:58:47.905Z,69.57
2023-05-08T16:00:50.673Z,69.62
2023-05-08T16:02:53.614Z,70.00
2023-05-08T16:04:56.485Z,69.48
2023-05-08T16:06:59.808Z,68.96
2023-05-08T16:09:04.064Z,69.71
2023-05-08T16:11:06.874Z,69.27
2023-05-08T16:13:09.803Z,68.68
2023-05-08T16:15:13.109Z,67.62
2023-05-08T16:17:16.507Z,67.60
2023-05-08T16:19:19.300Z,67.19
2023-05-08T16:21:23.182Z,67.11
2023-05-08T16:23:26.178Z,67.28
2023-05-08T16:25:30.453Z,68.18
2023-05-08T16:27:33.234Z,69.20
2023-05-08T16:29:36.900Z,69.71
2023-05-08T16:31:39.788Z,69.47
2023-05-08T16:33:42.952Z,67.74
2023-05-08T16:35:45.799Z,67.88
2023-05-08T16:37:48.656Z,67.95
2023-05-08T16:39:51.441Z,68.90
2023-05-08T16:41:55.659Z,69.32
2023-05-08T16:43:58.474Z,68.12
2023-05-08T16:46:01.304Z,69.24
2023-05-08T16:48:04.660Z,69.28
2023-05-08T16:50:08.669Z,68.99
2023-05-08T16:52:11.446Z,69.54
2023-05-08T16:54:14.274Z,70.12
2023-05-08T16:56:17.090Z,70.91
2023-05-08T16:58:21.544Z,70.30
2023-05-08T17:00:24.512Z,70.94
2023-05-08T17:02:27.399Z,71.01
2023-05-08T17:04:31.010Z,71.19
2023-05-08T17:06:33.911Z,71.19
2023-05-08T17:08:36.868Z,70.40
2023-05-08T17:10:41.287Z,69.46
2023-05-08T17:12:43.988Z,69.34
2023-05-08T17:14:48.800Z,69.22
2023-05-08T17:16:51.584Z,69.80
2023-05-08T17:18:54.425Z,70.28
2023-05-08T17:20:57.247Z,70.96
2023-05-08T17:23:00.006Z,70.68
2023-05-08T17:25:03.316Z,70.58
2023-05-08T17:27:08.045Z,70.52
2023-05-08T17:29:10.863Z,69.70
2023-05-08T17:31:15.909Z,69.89
2023-05-08T17:33:19.543Z,69.38
2023-05-08T17:35:23.125Z,69.60
2023-05-08T17:37:25.958Z,69.79
2023-05-08T17:39:28.730Z,70.84
2023-05-08T17:41:31.580Z,70.70
2023-05-08T17:43:35.521Z,70.82
2023-05-08T17:45:38.424Z,70.43
2023-05-08T17:47:42.664Z,70.05
2023-05-08T17:49:45.460Z,70.58
2023-05-08T17:51:48.460Z,71.29
2023-05-08T17:53:53.039Z,71.01
2023-05-08T17:55:55.885Z,70.99
2023-05-08T17:57:58.809Z,71.41
2023-05-08T18:00:01.584Z,70.57
2023-05-08T18:02:04.546Z,70.70
2023-05-08T18:04:08.805Z,71.26
2023-05-08T18:06:14.810Z,70.85
2023-05-08T18:08:17.592Z,71.27
2023-05-08T18:10:21.014Z,71.36
2023-05-08T18:12:23.872Z,71.25
2023-05-08T18:14:26.698Z,71.37
2023-05-08T18:16:29.773Z,71.73
2023-05-08T18:18:32.659Z,71.77
2023-05-08T18:20:36.811Z,71.91
2023-05-08T18:22:39.662Z,71.93
2023-05-08T18:24:42.459Z,72.17
2023-05-08T18:26:47.387Z,72.07
2023-05-08T18:28:50.214Z,72.30
2023-05-08T18:30:53.044Z,72.51
2023-05-08T18:32:55.914Z,73.00
2023-05-08T18:34:58.739Z,72.86
2023-05-08T18:37:02.877Z,72.98
2023-05-08T18:39:05.697Z,73.25
2023-05-08T18:41:08.551Z,73.38
2023-05-08T18:43:11.402Z,73.40
2023-05-08T18:45:14.272Z,73.45
2023-05-08T18:47:17.204Z,73.67
2023-05-08T18:49:20.670Z,73.57
2023-05-08T18:51:23.760Z,73.50
2023-05-08T18:53:27.966Z,73.69
2023-05-08T18:55:31.597Z,73.64
2023-05-08T18:57:34.494Z,73.68
2023-05-08T18:59:37.379Z,73.74
2023-05-08T19:01:40.211Z,73.88
2023-05-08T19:03:43.097Z,74.48
2023-05-08T19:05:45.927Z,74.52
2023-05-08T19:07:48.704Z,74.40
2023-05-08T19:09:52.834Z,74.50
2023-05-08T19:11:55.673Z,74.55
2023-05-08T19:13:58.533Z,74.13
2023-05-08T19:16:01.516Z,74.16
2023-05-08T19:18:04.948Z,74.30
2023-05-08T19:20:09.027Z,74.36
2023-05-08T19:22:11.898Z,74.72
2023-05-08T19:24:16.198Z,74.77
2023-05-08T19:26:21.303Z,74.79
2023-05-08T19:28:24.140Z,74.96
2023-05-08T19:30:27.021Z,74.87
2023-05-08T19:32:29.841Z,74.90
2023-05-08T19:34:33.029Z,75.24
2023-05-08T19:36:37.681Z,74.94
2023-05-08T19:38:40.727Z,75.16
2023-05-08T19:40:55.668Z,75.05
2023-05-08T19:43:00.318Z,75.36
2023-05-08T19:45:03.150Z,75.73
2023-05-08T19:47:06.438Z,75.61
2023-05-08T19:49:09.943Z,75.98
2023-05-08T19:51:12.736Z,75.60
2023-05-08T19:53:15.723Z,75.56
2023-05-08T19:55:19.366Z,76.01
2023-05-08T19:57:22.172Z,75.84
2023-05-08T19:59:26.342Z,75.89
2023-05-08T20:01:29.176Z,75.89
2023-05-08T20:03:32.073Z,75.90
2023-05-08T20:05:35.018Z,75.93
2023-05-08T20:07:37.847Z,76.11
2023-05-08T20:09:41.059Z,76.20
2023-05-08T20:11:43.817Z,76.02
2023-05-08T20:13:46.664Z,75.88
2023-05-08T20:15:53.851Z,75.27
2023-05-08T20:17:56.743Z,75.46
2023-05-08T20:19:59.582Z,75.15
2023-05-08T20:22:02.544Z,75.07
2023-05-08T20:24:06.032Z,75.18
2023-05-08T20:26:08.919Z,75.13
2023-05-08T20:28:11.734Z,75.24
2023-05-08T20:30:17.296Z,74.98
2023-05-08T20:32:21.494Z,74.97
2023-05-08T20:34:24.349Z,75.17
2023-05-08T20:36:27.389Z,75.23
2023-05-08T20:38:30.377Z,74.90
2023-05-08T20:40:33.189Z,75.17
2023-05-08T20:42:36.034Z,75.28
2023-05-08T20:44:38.805Z,75.63
2023-05-08T20:46:41.605Z,75.69
2023-05-08T20:48:45.915Z,76.11
2023-05-08T20:50:48.935Z,75.83
2023-05-08T20:52:51.780Z,75.76
2023-05-08T20:54:54.663Z,75.84
2023-05-08T20:56:57.613Z,75.63
2023-05-08T20:59:00.408Z,75.41
2023-05-08T21:01:03.287Z,75.09
2023-05-08T21:03:06.318Z,75.16
2023-05-08T21:05:11.115Z,74.95
2023-05-08T21:07:14.217Z,75.32
2023-05-08T21:09:17.327Z,75.61
2023-05-08T21:11:20.100Z,75.74
2023-05-08T21:13:22.937Z,75.70
2023-05-08T21:15:25.750Z,75.75
2023-05-08T21:17:28.702Z,75.93
2023-05-08T21:19:31.865Z,75.88
2023-05-08T21:21:36.033Z,75.99
2023-05-08T21:23:38.801Z,76.14
2023-05-08T21:25:41.561Z,76.34
2023-05-08T21:27:44.577Z,76.55
2023-05-08T21:29:47.377Z,76.61
2023-05-08T21:31:50.261Z,76.91
2023-05-08T21:33:53.077Z,76.83
2023-05-08T21:35:55.943Z,76.90
2023-05-08T21:38:00.049Z,76.85
2023-05-08T21:40:04.106Z,76.84
2023-05-08T21:42:07.163Z,76.56
2023-05-08T21:44:11.556Z,76.51
2023-05-08T21:46:14.543Z,76.21
2023-05-08T21:48:17.338Z,76.05
2023-05-08T21:50:20.412Z,76.01
2023-05-08T21:52:25.580Z,76.03
2023-05-08T21:54:29.738Z,75.97
2023-05-08T21:56:32.506Z,75.83
2023-05-08T21:58:35.372Z,76.01
2023-05-08T22:00:38.177Z,75.80
2023-05-08T22:02:41.056Z,75.80
2023-05-08T22:04:44.162Z,75.70
2023-05-08T22:06:47.325Z,75.67
2023-05-08T22:08:50.130Z,76.01
2023-05-08T22:10:54.318Z,76.29
2023-05-08T22:12:57.236Z,76.22
2023-05-08T22:15:00.087Z,76.17
2023-05-08T22:17:02.911Z,76.38
2023-05-08T22:19:06.244Z,76.70
2023-05-08T22:21:09.076Z,76.58
2023-05-08T22:23:11.842Z,76.68
2023-05-08T22:25:14.835Z,76.99
2023-05-08T22:27:19.203Z,76.67
2023-05-08T22:29:21.977Z,76.52
2023-05-08T22:31:24.853Z,76.88
2023-05-08T22:33:29.618Z,77.01
2023-05-08T22:35:32.817Z,77.16
2023-05-08T22:37:36.665Z,77.22
2023-05-08T22:39:39.499Z,77.27
2023-05-08T22:41:42.556Z,76.89
2023-05-08T22:43:46.744Z,76.82
2023-05-08T22:45:49.637Z,76.78
2023-05-08T22:47:52.572Z,76.59
2023-05-08T22:49:55.401Z,76.29
2023-05-08T22:51:58.295Z,76.46
2023-05-08T22:54:01.063Z,76.58
2023-05-08T22:56:03.839Z,76.40
2023-05-08T22:58:06.639Z,76.29
2023-05-08T23:00:12.372Z,76.29
2023-05-08T23:02:15.170Z,75.89
2023-05-08T23:04:18.174Z,76.33
2023-05-08T23:06:21.252Z,76.04
2023-05-08T23:08:24.126Z,76.07
2023-05-08T23:10:26.949Z,76.00
2023-05-08T23:12:29.721Z,75.90
2023-05-08T23:14:32.517Z,76.08
2023-05-08T23:16:36.710Z,76.22
2023-05-08T23:18:39.545Z,76.03
2023-05-08T23:20:42.280Z,76.04
2023-05-08T23:22:45.299Z,76.08
2023-05-08T23:24:48.626Z,75.91
2023-05-08T23:26:52.400Z,76.27
2023-05-08T23:28:55.281Z,76.37
2023-05-08T23:30:58.209Z,76.55
2023-05-08T23:33:02.414Z,76.73
2023-05-08T23:35:05.712Z,76.69
2023-05-08T23:37:08.764Z,76.63
2023-05-08T23:39:11.534Z,76.65
2023-05-08T23:41:14.747Z,76.80
2023-05-08T23:43:17.809Z,77.37
2023-05-08T23:45:20.497Z,76.98
2023-05-08T23:47:23.940Z,77.15
2023-05-08T23:49:28.033Z,77.33
2023-05-08T23:51:30.825Z,77.25
2023-05-08T23:53:33.578Z,77.48
2023-05-08T23:55:37.707Z,77.71
2023-05-08T23:57:40.584Z,77.74
2023-05-08T23:59:43.388Z,77.55
